KLUF/LUF METAR and TAF weather

Enter ICAO airport designator
Station Type Date Time Source
KLUF METAR 2021/03/04 21:58 UTC NOAA

KLUF 042158Z AUTO 25005KT 10SM CLR 21/03 A3015 RMK AO2 SLP205 T02070030 $


Station Type Date Time Source
KLUF Decoded METAR 2021/03/04 21:58 UTC NOAA

Luke Air Force Base / Phoenix, AZ, United States (KLUF) 33-32N 112-23W 332M
Mar 04, 2021 - 04:58 PM EST / 2021.03.04 2158 UTC
Wind: from the WSW (250 degrees) at 6 MPH (5 KT):0
Visibility: 10 mile(s):0
Sky conditions: clear
Temperature: 69.3 F (20.7 C)
Dew Point: 37.4 F (3.0 C)
Relative Humidity: 31%
Pressure (altimeter): 30.15 in. Hg (1020 hPa)
ob: KLUF 042158Z AUTO 25005KT 10SM CLR 21/03 A3015 RMK AO2 SLP205 T02070030
cycle: 22

Station Type Date Time Source
KLUF TAF 2021/03/04 20:18 UTC NOAA

TAF KLUF 042000Z 0420/0602 VRB06KT 9999 SCT050 SCT250 QNH3013INS
BECMG 0422/0423 21009KT 9999 FEW050 FEW250 QNH3011INS
BECMG 0501/0502 VRB06KT 9999 FEW250 QNH2994INS TX21/0423Z TN08/0513Z

Example: see airport list